| time (UTC) | temp C | wind direction | speed KPH | gust KPH | rain 1hr cm | rain 24hr cm | rain mn cm | humidity % | barometer mb |
| 20260507000744 | 12 | 282 | 0.0 | 0.0 | 0.00 | 0.10 | 0.10 | 92 | 1008.3 |
| 20260507000240 | 12 | 276 | 3.2 | 4.8 | 0.00 | 0.10 | 0.10 | 92 | 1008.3 |
| 20260506235737 | 12 | 266 | 3.2 | 4.8 | 0.00 | 0.10 | 0.10 | 92 | 1008.0 |
| 20260506235232 | 12 | 265 | 3.2 | 6.4 | 0.00 | 0.10 | 0.10 | 92 | 1008.0 |
| 20260506234730 | 12 | 278 | 3.2 | 4.8 | 0.00 | 0.10 | 0.10 | 92 | 1008.3 |
| 20260506234227 | 12 | 288 | 3.2 | 4.8 | 0.00 | 0.10 | 0.10 | 92 | 1008.0 |
| 20260506233724 | 12 | 302 | 6.4 | 8.0 | 0.00 | 0.10 | 0.10 | 92 | 1008.3 |
| 20260506233221 | 12 | 283 | 3.2 | 4.8 | 0.00 | 0.10 | 0.10 | 92 | 1008.3 |
| 20260506232717 | 12 | 268 | 4.8 | 6.4 | 0.00 | 0.10 | 0.10 | 92 | 1008.0 |
| 20260506232212 | 12 | 282 | 3.2 | 4.8 | 0.00 | 0.10 | 0.10 | 92 | 1008.0 |
| 20260506231710 | 12 | 272 | 1.6 | 1.6 | 0.00 | 0.10 | 0.10 | 92 | 1008.3 |
| 20260506231208 | 12 | 283 | 4.8 | 4.8 | 0.00 | 0.10 | 0.10 | 92 | 1008.3 |
| 20260506230704 | 12 | 248 | 4.8 | 6.4 | 0.00 | 0.10 | 0.10 | 92 | 1008.3 |
| 20260506230201 | 12 | 288 | 6.4 | 6.4 | 0.00 | 0.10 | 0.10 | 92 | 1008.0 |
| 20260506225658 | 12 | 223 | 4.8 | 6.4 | 0.00 | 0.10 | 0.10 | 92 | 1008.0 |
| 20260506225155 | 12 | 296 | 3.2 | 4.8 | 0.00 | 0.10 | 0.10 | 92 | 1008.3 |
| 20260506224651 | 13 | 269 | 6.4 | 12.9 | 0.00 | 0.10 | 0.10 | 92 | 1008.0 |
| 20260506224148 | 13 | 266 | 4.8 | 6.4 | 0.00 | 0.10 | 0.10 | 92 | 1008.0 |
| 20260506223645 | 13 | 266 | 3.2 | 4.8 | 0.00 | 0.10 | 0.10 | 92 | 1008.0 |
| 20260506223140 | 13 | 290 | 12.9 | 24.1 | 0.00 | 0.10 | 0.10 | 92 | 1008.0 |
| 20260506222637 | 13 | 299 | 4.8 | 6.4 | 0.00 | 0.10 | 0.10 | 92 | 1008.0 |
| 20260506222133 | 13 | 250 | 6.4 | 8.0 | 0.00 | 0.10 | 0.10 | 92 | 1007.7 |
| 20260506221631 | 13 | 268 | 0.0 | 0.0 | 0.00 | 0.10 | 0.10 | 92 | 1008.0 |
| 20260506221130 | 13 | 227 | 4.8 | 6.4 | 0.00 | 0.10 | 0.10 | 92 | 1008.0 |
| 20260506220626 | 13 | 279 | 6.4 | 8.0 | 0.05 | 0.10 | 0.10 | 92 | 1008.0 |
| 20260506220121 | 13 | 282 | 1.6 | 1.6 | 0.05 | 0.10 | 0.10 | 92 | 1008.0 |
| 20260506215618 | 13 | 276 | 3.2 | 4.8 | 0.08 | 0.10 | 0.10 | 92 | 1008.0 |
| 20260506215113 | 13 | 307 | 8.0 | 11.3 | 0.08 | 0.10 | 0.10 | 92 | 1008.0 |
| 20260506214610 | 13 | 273 | 6.4 | 11.3 | 0.08 | 0.10 | 0.10 | 92 | 1008.0 |
| 20260506214108 | 13 | 260 | 3.2 | 4.8 | 0.08 | 0.10 | 0.10 | 92 | 1008.0 |
| 20260506213606 | 13 | 305 | 4.8 | 6.4 | 0.08 | 0.10 | 0.10 | 92 | 1008.0 |
| 20260506213103 | 13 | 185 | 3.2 | 6.4 | 0.08 | 0.10 | 0.10 | 92 | 1008.0 |
| 20260506212600 | 13 | 271 | 4.8 | 6.4 | 0.08 | 0.10 | 0.10 | 92 | 1008.0 |
| 20260506212054 | 13 | 247 | 3.2 | 4.8 | 0.08 | 0.10 | 0.10 | 92 | 1008.3 |
| 20260506211551 | 13 | 266 | 3.2 | 4.8 | 0.08 | 0.10 | 0.10 | 92 | 1008.3 |
| 20260506211048 | 13 | 255 | 4.8 | 8.0 | 0.08 | 0.10 | 0.10 | 92 | 1008.7 |
| 20260506210544 | 13 | 233 | 6.4 | 11.3 | 0.03 | 0.05 | 0.05 | 92 | 1008.7 |
| 20260506210041 | 13 | 278 | 0.0 | 1.6 | 0.03 | 0.05 | 0.05 | 92 | 1008.7 |
| 20260506205538 | 13 | 250 | 4.8 | 6.4 | 0.00 | 0.03 | 0.03 | 92 | 1008.7 |
| 20260506205033 | 13 | 226 | 1.6 | 4.8 | 0.00 | 0.03 | 0.03 | 92 | 1008.7 |
| 20260506204531 | 13 | 233 | 6.4 | 8.0 | 0.00 | 0.03 | 0.03 | 92 | 1008.7 |
| 20260506204028 | 13 | 270 | 1.6 | 1.6 | 0.00 | 0.03 | 0.03 | 92 | 1008.7 |
| 20260506203526 | 13 | 287 | 1.6 | 4.8 | 0.00 | 0.03 | 0.03 | 92 | 1008.7 |
| 20260506203022 | 13 | 240 | 3.2 | 4.8 | 0.00 | 0.03 | 0.03 | 92 | 1008.7 |
| 20260506202520 | 13 | 238 | 3.2 | 4.8 | 0.00 | 0.03 | 0.03 | 92 | 1008.7 |
| 20260506202016 | 13 | 220 | 4.8 | 6.4 | 0.00 | 0.03 | 0.03 | 92 | 1008.7 |
| 20260506201514 | 13 | 281 | 3.2 | 4.8 | 0.00 | 0.03 | 0.03 | 92 | 1008.7 |
| 20260506201010 | 13 | 241 | 6.4 | 8.0 | 0.00 | 0.03 | 0.03 | 92 | 1008.7 |
| 20260506200506 | 13 | 261 | 0.0 | 1.6 | 0.00 | 0.03 | 0.03 | 92 | 1008.7 |
| 20260506200003 | 13 | 215 | 4.8 | 6.4 | 0.00 | 0.03 | 0.03 | 92 | 1008.7 |
| 20260506195500 | 13 | 211 | 1.6 | 4.8 | 0.00 | 0.03 | 0.03 | 92 | 1008.7 |
| 20260506194955 | 13 | 205 | 4.8 | 6.4 | 0.00 | 0.03 | 0.03 | 92 | 1008.7 |
| 20260506194453 | 13 | 238 | 3.2 | 4.8 | 0.00 | 0.03 | 0.03 | 92 | 1008.7 |
| 20260506193944 | 13 | 220 | 4.8 | 4.8 | 0.03 | 0.03 | 0.03 | 92 | 1008.7 |
| 20260506193442 | 13 | 269 | 1.6 | 1.6 | 0.03 | 0.03 | 0.03 | 92 | 1009.0 |
| 20260506192938 | 13 | 258 | 0.0 | 1.6 | 0.03 | 0.03 | 0.03 | 92 | 1009.3 |
| 20260506192435 | 13 | 195 | 6.4 | 8.0 | 0.03 | 0.03 | 0.03 | 92 | 1009.3 |
| 20260506191932 | 13 | 249 | 0.0 | 0.0 | 0.03 | 0.03 | 0.03 | 92 | 1009.0 |
| 20260506191429 | 13 | 219 | 8.0 | 11.3 | 0.03 | 0.03 | 0.03 | 92 | 1009.7 |
| 20260506190925 | 13 | 259 | 1.6 | 4.8 | 0.03 | 0.03 | 0.03 | 92 | 1009.7 |
| 20260506190422 | 13 | 258 | 3.2 | 4.8 | 0.03 | 0.03 | 0.03 | 92 | 1009.3 |
| 20260506185919 | 13 | 212 | 3.2 | 4.8 | 0.03 | 0.03 | 0.03 | 92 | 1009.0 |
| 20260506185416 | 13 | 259 | 1.6 | 4.8 | 0.03 | 0.03 | 0.03 | 92 | 1009.3 |
| 20260506184913 | 14 | 290 | 3.2 | 6.4 | 0.03 | 0.03 | 0.03 | 92 | 1009.3 |
| 20260506184410 | 14 | 227 | 8.0 | 11.3 | 0.00 | 0.00 | 0.00 | 92 | 1009.3 |
| 20260506183907 | 14 | 295 | 11.3 | 20.9 | 0.00 | 0.00 | 0.00 | 91 | 1009.7 |
| 20260506183402 | 14 | 322 | 11.3 | 14.5 | 0.00 | 0.00 | 0.00 | 89 | 1009.7 |
| 20260506182900 | 15 | 259 | 4.8 | 8.0 | 0.00 | 0.00 | 0.00 | 89 | 1009.7 |
| 20260506182357 | 15 | 200 | 4.8 | 4.8 | 0.00 | 0.00 | 0.00 | 88 | 1010.0 |
| 20260506181854 | 15 | 244 | 3.2 | 6.4 | 0.00 | 0.00 | 0.00 | 87 | 1010.0 |
| 20260506181352 | 15 | 329 | 6.4 | 8.0 | 0.00 | 0.00 | 0.00 | 86 | 1010.0 |
| 20260506180849 | 15 | 277 | 4.8 | 8.0 | 0.00 | 0.00 | 0.00 | 85 | 1010.0 |
| 20260506180345 | 15 | 252 | 6.4 | 8.0 | 0.00 | 0.00 | 0.00 | 84 | 1010.0 |
| 20260506175842 | 15 | 332 | 3.2 | 6.4 | 0.00 | 0.00 | 0.00 | 83 | 1010.4 |
| 20260506175338 | 15 | 262 | 0.0 | 1.6 | 0.00 | 0.00 | 0.00 | 83 | 1010.4 |
| 20260506174835 | 15 | 315 | 4.8 | 8.0 | 0.00 | 0.00 | 0.00 | 83 | 1010.4 |
| 20260506174333 | 15 | 275 | 3.2 | 4.8 | 0.00 | 0.00 | 0.00 | 82 | 1010.4 |
| 20260506173830 | 16 | 327 | 4.8 | 4.8 | 0.00 | 0.00 | 0.00 | 81 | 1010.7 |
| 20260506173327 | 16 | 286 | 1.6 | 1.6 | 0.00 | 0.00 | 0.00 | 80 | 1010.4 |
| 20260506172824 | 16 | 259 | 4.8 | 6.4 | 0.00 | 0.00 | 0.00 | 81 | 1010.7 |
| 20260506172321 | 16 | 213 | 4.8 | 6.4 | 0.00 | 0.00 | 0.00 | 81 | 1010.7 |
| 20260506171818 | 16 | 220 | 4.8 | 6.4 | 0.00 | 0.00 | 0.00 | 81 | 1010.7 |
| 20260506171315 | 16 | 280 | 1.6 | 1.6 | 0.00 | 0.00 | 0.00 | 81 | 1010.4 |
| 20260506170813 | 16 | 283 | 3.2 | 4.8 | 0.00 | 0.00 | 0.00 | 81 | 1011.0 |
| 20260506170308 | 16 | 207 | 8.0 | 11.3 | 0.00 | 0.00 | 0.00 | 82 | 1011.0 |
| 20260506165808 | 15 | 270 | 3.2 | 4.8 | 0.00 | 0.00 | 0.00 | 82 | 1011.0 |
| 20260506165306 | 15 | 229 | 4.8 | 6.4 | 0.00 | 0.00 | 0.00 | 82 | 1010.7 |
| 20260506164801 | 16 | 220 | 9.7 | 11.3 | 0.00 | 0.00 | 0.00 | 81 | 1011.0 |
| 20260506164258 | 16 | 224 | 4.8 | 6.4 | 0.00 | 0.00 | 0.00 | 80 | 1010.7 |
| 20260506163755 | 16 | 342 | 1.6 | 1.6 | 0.00 | 0.00 | 0.00 | 79 | 1010.7 |
| 20260506163250 | 16 | 229 | 4.8 | 6.4 | 0.00 | 0.00 | 0.00 | 79 | 1011.0 |
| 20260506162746 | 16 | 211 | 16.1 | 19.3 | 0.00 | 0.00 | 0.00 | 79 | 1011.0 |
| 20260506162244 | 17 | 259 | 8.0 | 11.3 | 0.00 | 0.00 | 0.00 | 78 | 1011.0 |
| 20260506161741 | 17 | 264 | 3.2 | 4.8 | 0.00 | 0.00 | 0.00 | 78 | 1011.4 |
| 20260506161238 | 16 | 256 | 8.0 | 11.3 | 0.00 | 0.00 | 0.00 | 79 | 1011.4 |
| 20260506160736 | 17 | 284 | 3.2 | 4.8 | 0.00 | 0.00 | 0.00 | 79 | 1011.4 |
| 20260506160232 | 16 | 247 | 4.8 | 6.4 | 0.00 | 0.00 | 0.00 | 80 | 1011.4 |
| 20260506155731 | 16 | 269 | 11.3 | 19.3 | 0.00 | 0.00 | 0.00 | 80 | 1011.7 |
| 20260506155227 | 16 | 178 | 8.0 | 11.3 | 0.00 | 0.00 | 0.00 | 80 | 1011.4 |
| 20260506153335 | 17 | 281 | 16.1 | 20.9 | 0.00 | 0.00 | 0.00 | 79 | 1012.1 |
| 20260506152832 | 17 | 220 | 11.3 | 17.7 | 0.00 | 0.00 | 0.00 | 79 | 1012.1 |
| 20260506152329 | 17 | 285 | 11.3 | 14.5 | 0.00 | 0.00 | 0.00 | 78 | 1011.7 |
| 20260506151828 | 17 | 301 | 6.4 | 8.0 | 0.00 | 0.00 | 0.00 | 78 | 1011.4 |
| 20260506151324 | 17 | 306 | 8.0 | 11.3 | 0.00 | 0.00 | 0.00 | 78 | 1011.7 |
| 20260506150821 | 17 | 264 | 6.4 | 6.4 | 0.00 | 0.00 | 0.00 | 77 | 1012.1 |
| 20260506150318 | 17 | 191 | 6.4 | 17.7 | 0.00 | 0.00 | 0.00 | 76 | 1011.4 |
| 20260506145815 | 17 | 276 | 4.8 | 6.4 | 0.00 | 0.00 | 0.00 | 78 | 1011.7 |
| 20260506145311 | 17 | 280 | 6.4 | 8.0 | 0.00 | 0.00 | 0.00 | 77 | 1012.1 |
| 20260506144809 | 17 | 228 | 20.9 | 25.7 | 0.00 | 0.00 | 0.00 | 78 | 1011.7 |
| 20260506144305 | 17 | 230 | 16.1 | 20.9 | 0.00 | 0.00 | 0.00 | 78 | 1011.7 |
| 20260506143803 | 17 | 189 | 16.1 | 20.9 | 0.00 | 0.00 | 0.00 | 77 | 1012.1 |
| 20260506143300 | 17 | 333 | 6.4 | 8.0 | 0.00 | 0.00 | 0.00 | 78 | 1012.4 |
| 20260506142758 | 16 | 316 | 9.7 | 11.3 | 0.00 | 0.00 | 0.00 | 80 | 1012.1 |
| 20260506142256 | 16 | 270 | 11.3 | 14.5 | 0.00 | 0.00 | 0.00 | 80 | 1012.1 |
| 20260506141754 | 16 | 288 | 9.7 | 14.5 | 0.00 | 0.00 | 0.00 | 80 | 1012.1 |
| 20260506141252 | 16 | 260 | 12.9 | 14.5 | 0.00 | 0.00 | 0.00 | 80 | 1012.1 |
| 20260506140749 | 16 | 276 | 8.0 | 14.5 | 0.00 | 0.00 | 0.00 | 80 | 1011.7 |
| 20260506140246 | 16 | 272 | 16.1 | 25.7 | 0.00 | 0.00 | 0.00 | 81 | 1011.7 |
| 20260506135743 | 16 | 236 | 3.2 | 6.4 | 0.00 | 0.00 | 0.00 | 81 | 1011.7 |
| 20260506135239 | 16 | 298 | 12.9 | 14.5 | 0.00 | 0.00 | 0.00 | 80 | 1012.1 |
| 20260506134736 | 16 | 247 | 6.4 | 11.3 | 0.00 | 0.00 | 0.00 | 82 | 1011.4 |
| 20260506134233 | 16 | 269 | 11.3 | 19.3 | 0.00 | 0.00 | 0.00 | 81 | 1011.7 |
| 20260506133730 | 16 | 288 | 8.0 | 11.3 | 0.00 | 0.00 | 0.00 | 80 | 1011.7 |
| 20260506133226 | 17 | 218 | 8.0 | 11.3 | 0.00 | 0.00 | 0.00 | 79 | 1011.4 |
| 20260506132724 | 17 | 281 | 6.4 | 11.3 | 0.00 | 0.00 | 0.00 | 78 | 1011.7 |
| 20260506132221 | 17 | 156 | 6.4 | 8.0 | 0.00 | 0.00 | 0.00 | 79 | 1011.7 |
| 20260506131719 | 16 | 277 | 4.8 | 6.4 | 0.00 | 0.00 | 0.00 | 81 | 1011.7 |
| 20260506131214 | 16 | 271 | 6.4 | 8.0 | 0.00 | 0.00 | 0.00 | 82 | 1012.1 |
| 20260506130711 | 16 | 278 | 19.3 | 30.6 | 0.00 | 0.00 | 0.00 | 80 | 1012.1 |
| 20260506130208 | 16 | 300 | 8.0 | 11.3 | 0.00 | 0.00 | 0.00 | 81 | 1012.1 |
| 20260506125706 | 16 | 252 | 11.3 | 19.3 | 0.00 | 0.00 | 0.00 | 81 | 1011.7 |
| 20260506125204 | 16 | 235 | 3.2 | 4.8 | 0.00 | 0.00 | 0.00 | 82 | 1012.1 |
| 20260506124702 | 16 | 230 | 6.4 | 8.0 | 0.00 | 0.00 | 0.00 | 82 | 1012.1 |
| 20260506124200 | 16 | 272 | 6.4 | 8.0 | 0.00 | 0.00 | 0.00 | 82 | 1012.4 |
| 20260506123657 | 16 | 281 | 3.2 | 6.4 | 0.00 | 0.00 | 0.00 | 82 | 1012.1 |
| 20260506123155 | 15 | 252 | 4.8 | 6.4 | 0.00 | 0.00 | 0.00 | 83 | 1012.4 |
| 20260506122652 | 15 | 276 | 3.2 | 4.8 | 0.00 | 0.00 | 0.00 | 83 | 1012.1 |
| 20260506122149 | 15 | 247 | 8.0 | 11.3 | 0.00 | 0.00 | 0.00 | 83 | 1012.1 |
| 20260506121647 | 15 | 309 | 4.8 | 6.4 | 0.00 | 0.00 | 0.00 | 84 | 1012.4 |
| 20260506121143 | 15 | 255 | 4.8 | 6.4 | 0.00 | 0.00 | 0.00 | 84 | 1012.4 |
| 20260506120641 | 15 | 258 | 6.4 | 6.4 | 0.00 | 0.00 | 0.00 | 84 | 1012.4 |
| 20260506120138 | 15 | 256 | 6.4 | 11.3 | 0.00 | 0.00 | 0.00 | 84 | 1012.1 |
| 20260506115637 | 15 | 284 | 4.8 | 6.4 | 0.00 | 0.00 | 0.00 | 85 | 1012.1 |
| 20260506115134 | 15 | 285 | 6.4 | 8.0 | 0.00 | 0.00 | 0.00 | 85 | 1012.4 |
| 20260506114631 | 15 | 270 | 6.4 | 11.3 | 0.00 | 0.00 | 0.00 | 85 | 1012.1 |
| 20260506114129 | 15 | 154 | 6.4 | 6.4 | 0.00 | 0.00 | 0.00 | 86 | 1012.1 |
| 20260506113628 | 15 | 275 | 8.0 | 14.5 | 0.00 | 0.00 | 0.00 | 86 | 1012.1 |
| 20260506113124 | 15 | 236 | 6.4 | 8.0 | 0.00 | 0.00 | 0.00 | 86 | 1012.4 |
| 20260506112620 | 15 | 274 | 9.7 | 14.5 | 0.00 | 0.00 | 0.00 | 86 | 1012.4 |
| 20260506112118 | 14 | 192 | 3.2 | 6.4 | 0.00 | 0.00 | 0.00 | 87 | 1012.1 |
| 20260506111616 | 14 | 278 | 3.2 | 6.4 | 0.00 | 0.00 | 0.00 | 87 | 1012.4 |
| 20260506111113 | 14 | 214 | 6.4 | 8.0 | 0.00 | 0.00 | 0.00 | 88 | 1012.4 |
| 20260506110610 | 14 | 214 | 11.3 | 14.5 | 0.00 | 0.00 | 0.00 | 88 | 1012.4 |
| 20260506110108 | 14 | 214 | 4.8 | 8.0 | 0.00 | 0.00 | 0.00 | 88 | 1012.4 |
| 20260506105604 | 13 | 275 | 4.8 | 4.8 | 0.00 | 0.00 | 0.00 | 89 | 1012.4 |
| 20260506105101 | 13 | 289 | 4.8 | 8.0 | 0.00 | 0.00 | 0.00 | 90 | 1012.1 |
| 20260506104559 | 13 | 230 | 1.6 | 1.6 | 0.00 | 0.00 | 0.00 | 90 | 1012.1 |
| 20260506104057 | 13 | 305 | 4.8 | 4.8 | 0.00 | 0.00 | 0.00 | 90 | 1012.1 |
| 20260506103554 | 13 | 290 | 1.6 | 4.8 | 0.00 | 0.00 | 0.00 | 90 | 1012.4 |
| 20260506103050 | 13 | 274 | 6.4 | 12.9 | 0.00 | 0.00 | 0.00 | 90 | 1012.1 |
| 20260506102549 | 13 | 183 | 3.2 | 4.8 | 0.00 | 0.00 | 0.00 | 90 | 1012.1 |
| 20260506102046 | 13 | 258 | 6.4 | 8.0 | 0.00 | 0.00 | 0.00 | 90 | 1012.1 |
| 20260506101542 | 13 | 264 | 3.2 | 4.8 | 0.00 | 0.00 | 0.00 | 90 | 1012.1 |
| 20260506101039 | 13 | 282 | 6.4 | 8.0 | 0.00 | 0.00 | 0.00 | 90 | 1012.1 |
| 20260506100538 | 13 | 244 | 3.2 | 6.4 | 0.00 | 0.00 | 0.00 | 90 | 1012.1 |
| 20260506100036 | 13 | 211 | 6.4 | 8.0 | 0.00 | 0.00 | 0.00 | 90 | 1012.1 |
| 20260506095534 | 13 | 293 | 8.0 | 14.5 | 0.00 | 0.00 | 0.00 | 90 | 1012.1 |
| 20260506095030 | 13 | 290 | 4.8 | 6.4 | 0.00 | 0.00 | 0.00 | 90 | 1012.1 |
| 20260506094528 | 13 | 221 | 4.8 | 6.4 | 0.00 | 0.00 | 0.00 | 90 | 1012.1 |
| 20260506094026 | 13 | 242 | 4.8 | 6.4 | 0.00 | 0.00 | 0.00 | 90 | 1012.1 |
| 20260506093524 | 13 | 271 | 4.8 | 6.4 | 0.00 | 0.00 | 0.00 | 90 | 1012.1 |
| 20260506093021 | 13 | 162 | 4.8 | 6.4 | 0.00 | 0.00 | 0.00 | 90 | 1012.1 |
| 20260506092519 | 13 | 198 | 4.8 | 6.4 | 0.00 | 0.00 | 0.00 | 90 | 1012.1 |
| 20260506092015 | 13 | 238 | 11.3 | 12.9 | 0.00 | 0.00 | 0.00 | 90 | 1012.1 |
| 20260506091514 | 13 | 259 | 3.2 | 4.8 | 0.00 | 0.00 | 0.00 | 90 | 1011.7 |
| 20260506091010 | 13 | 239 | 3.2 | 4.8 | 0.00 | 0.00 | 0.00 | 90 | 1012.1 |
| 20260506090508 | 13 | 203 | 4.8 | 6.4 | 0.00 | 0.00 | 0.00 | 90 | 1012.4 |
| 20260506090004 | 13 | 267 | 1.6 | 1.6 | 0.00 | 0.00 | 0.00 | 89 | 1012.4 |
| 20260506085502 | 13 | 274 | 6.4 | 6.4 | 0.00 | 0.00 | 0.00 | 89 | 1012.4 |
| 20260506084958 | 13 | 274 | 4.8 | 4.8 | 0.00 | 0.00 | 0.00 | 89 | 1012.4 |
| 20260506084455 | 13 | 263 | 8.0 | 11.3 | 0.00 | 0.00 | 0.00 | 89 | 1012.4 |
| 20260506083950 | 13 | 270 | 3.2 | 4.8 | 0.00 | 0.00 | 0.00 | 88 | 1012.1 |
| 20260506083448 | 13 | 268 | 1.6 | 1.6 | 0.00 | 0.00 | 0.00 | 88 | 1012.4 |
| 20260506082945 | 13 | 289 | 1.6 | 1.6 | 0.00 | 0.00 | 0.00 | 88 | 1012.1 |
| 20260506082442 | 13 | 282 | 6.4 | 8.0 | 0.00 | 0.00 | 0.00 | 88 | 1012.4 |
| 20260506081938 | 14 | 172 | 4.8 | 8.0 | 0.00 | 0.00 | 0.00 | 88 | 1012.4 |
| 20260506081437 | 13 | 262 | 6.4 | 8.0 | 0.00 | 0.00 | 0.00 | 88 | 1012.4 |
| 20260506080933 | 13 | 290 | 6.4 | 11.3 | 0.00 | 0.00 | 0.00 | 88 | 1012.4 |
| 20260506080430 | 13 | 240 | 3.2 | 6.4 | 0.00 | 0.00 | 0.00 | 88 | 1012.7 |
| 20260506073414 | 13 | 267 | 6.4 | 8.0 | 0.00 | 0.00 | 0.00 | 88 | 1012.7 |
| 20260506072912 | 13 | 205 | 3.2 | 4.8 | 0.00 | 0.00 | 0.00 | 88 | 1012.4 |
| 20260506072409 | 13 | 253 | 4.8 | 6.4 | 0.00 | 0.00 | 0.00 | 88 | 1012.4 |
| 20260506071906 | 13 | 280 | 3.2 | 4.8 | 0.00 | 0.00 | 0.00 | 88 | 1012.4 |
| 20260506071404 | 13 | 265 | 4.8 | 6.4 | 0.00 | 0.00 | 0.00 | 88 | 1012.1 |
| 20260506070901 | 13 | 254 | 3.2 | 4.8 | 0.00 | 0.00 | 0.00 | 88 | 1012.4 |
| 20260506070357 | 13 | 238 | 6.4 | 8.0 | 0.00 | 0.00 | 0.00 | 87 | 1012.4 |
| 20260506062335 | 14 | 291 | 6.4 | 8.0 | 0.00 | 0.00 | 0.00 | 87 | 1012.4 |
| 20260506061830 | 14 | 216 | 4.8 | 6.4 | 0.00 | 0.00 | 0.00 | 87 | 1012.7 |
| 20260506061328 | 14 | 255 | 1.6 | 4.8 | 0.00 | 0.00 | 0.00 | 87 | 1012.4 |
| 20260506060826 | 14 | 295 | 4.8 | 6.4 | 0.00 | 0.00 | 0.00 | 87 | 1012.7 |
| 20260506060323 | 13 | 239 | 4.8 | 6.4 | 0.00 | 0.00 | 0.00 | 87 | 1012.7 |
| 20260506051255 | 14 | 263 | 3.2 | 6.4 | 0.00 | 0.00 | 0.00 | 86 | 1013.1 |
| 20260506050753 | 14 | 222 | 3.2 | 6.4 | 0.00 | 0.00 | 0.00 | 85 | 1013.1 |
| 20260506050250 | 14 | 194 | 8.0 | 12.9 | 0.00 | 0.00 | 0.00 | 85 | 1013.1 |
| 20260506044741 | 14 | 263 | 4.8 | 6.4 | 0.00 | 0.00 | 0.00 | 84 | 1013.1 |
| 20260506044238 | 15 | 288 | 6.4 | 8.0 | 0.00 | 0.00 | 0.00 | 84 | 1013.1 |
| 20260506043735 | 14 | 169 | 3.2 | 6.4 | 0.00 | 0.00 | 0.00 | 83 | 1013.1 |
| 20260506043233 | 15 | 249 | 3.2 | 4.8 | 0.00 | 0.00 | 0.00 | 83 | 1013.1 |
| 20260506042731 | 15 | 289 | 0.0 | 0.0 | 0.00 | 0.00 | 0.00 | 82 | 1013.1 |
| 20260506042230 | 15 | 194 | 4.8 | 6.4 | 0.00 | 0.00 | 0.00 | 82 | 1013.1 |
| 20260506041728 | 15 | 273 | 6.4 | 8.0 | 0.00 | 0.00 | 0.00 | 82 | 1013.1 |
| 20260506041224 | 15 | 268 | 4.8 | 11.3 | 0.00 | 0.00 | 0.00 | 82 | 1012.7 |
| 20260506040722 | 15 | 282 | 3.2 | 4.8 | 0.00 | 0.00 | 0.00 | 81 | 1012.7 |
| 20260506040219 | 15 | 207 | 9.7 | 12.9 | 0.00 | 0.00 | 0.00 | 81 | 1013.1 |
| 20260506035715 | 15 | 298 | 4.8 | 8.0 | 0.00 | 0.00 | 0.00 | 81 | 1013.1 |
| 20260506035212 | 15 | 294 | 3.2 | 4.8 | 0.00 | 0.00 | 0.00 | 81 | 1013.1 |
| 20260506034709 | 15 | 271 | 3.2 | 4.8 | 0.00 | 0.00 | 0.00 | 80 | 1013.1 |
| 20260506034207 | 15 | 201 | 11.3 | 19.3 | 0.00 | 0.00 | 0.00 | 81 | 1013.1 |
| 20260506033704 | 15 | 283 | 4.8 | 6.4 | 0.00 | 0.00 | 0.00 | 80 | 1013.1 |
| 20260506033200 | 15 | 280 | 3.2 | 4.8 | 0.00 | 0.00 | 0.00 | 81 | 1013.1 |
| 20260506032657 | 15 | 262 | 3.2 | 4.8 | 0.00 | 0.00 | 0.00 | 81 | 1013.1 |
| 20260506032154 | 15 | 216 | 6.4 | 6.4 | 0.00 | 0.00 | 0.00 | 81 | 1012.7 |
| 20260506031651 | 15 | 249 | 3.2 | 4.8 | 0.00 | 0.00 | 0.00 | 81 | 1012.7 |
| 20260506031148 | 15 | 257 | 1.6 | 1.6 | 0.00 | 0.00 | 0.00 | 80 | 1013.1 |
| 20260506030647 | 15 | 299 | 6.4 | 11.3 | 0.00 | 0.00 | 0.00 | 80 | 1012.7 |
| 20260506030143 | 15 | 267 | 1.6 | 1.6 | 0.00 | 0.00 | 0.00 | 80 | 1012.7 |
| 20260506025640 | 15 | 269 | 3.2 | 4.8 | 0.00 | 0.00 | 0.00 | 80 | 1012.7 |
| 20260506025136 | 15 | 260 | 1.6 | 1.6 | 0.00 | 0.00 | 0.00 | 79 | 1012.7 |
| 20260506024634 | 15 | 297 | 6.4 | 8.0 | 0.00 | 0.00 | 0.00 | 79 | 1012.7 |
| 20260506024130 | 15 | 244 | 1.6 | 1.6 | 0.00 | 0.00 | 0.00 | 79 | 1012.7 |
| 20260506023626 | 15 | 260 | 3.2 | 6.4 | 0.00 | 0.00 | 0.00 | 78 | 1012.4 |
| 20260506023124 | 15 | 294 | 4.8 | 8.0 | 0.00 | 0.00 | 0.00 | 79 | 1012.7 |
| 20260506022621 | 15 | 271 | 0.0 | 0.0 | 0.00 | 0.00 | 0.00 | 78 | 1012.4 |
| 20260506022118 | 15 | 277 | 4.8 | 6.4 | 0.00 | 0.00 | 0.00 | 78 | 1012.7 |
| 20260506021616 | 15 | 275 | 4.8 | 6.4 | 0.00 | 0.00 | 0.00 | 78 | 1012.7 |
| 20260506021113 | 15 | 271 | 8.0 | 11.3 | 0.00 | 0.00 | 0.00 | 78 | 1012.7 |
| 20260506020610 | 15 | 200 | 4.8 | 8.0 | 0.00 | 0.00 | 0.00 | 78 | 1012.7 |
| 20260506020108 | 15 | 260 | 0.0 | 1.6 | 0.00 | 0.00 | 0.00 | 78 | 1012.7 |
| 20260506015605 | 15 | 257 | 0.0 | 1.6 | 0.00 | 0.00 | 0.00 | 78 | 1012.7 |
| 20260506015102 | 15 | 287 | 6.4 | 11.3 | 0.00 | 0.00 | 0.00 | 78 | 1012.4 |
| 20260506014600 | 15 | 305 | 1.6 | 1.6 | 0.00 | 0.00 | 0.00 | 77 | 1012.4 |
| 20260506014055 | 15 | 320 | 3.2 | 6.4 | 0.00 | 0.00 | 0.00 | 77 | 1012.4 |
| 20260506013553 | 15 | 265 | 3.2 | 8.0 | 0.00 | 0.00 | 0.00 | 78 | 1012.4 |
| 20260506013050 | 15 | 270 | 4.8 | 8.0 | 0.00 | 0.00 | 0.00 | 78 | 1012.7 |
| 20260506012546 | 15 | 279 | 4.8 | 6.4 | 0.00 | 0.00 | 0.00 | 77 | 1012.4 |
| 20260506012043 | 15 | 268 | 3.2 | 4.8 | 0.00 | 0.00 | 0.00 | 77 | 1012.4 |
| 20260506011541 | 15 | 281 | 6.4 | 8.0 | 0.00 | 0.00 | 0.00 | 78 | 1012.1 |
| 20260506011036 | 15 | 282 | 4.8 | 6.4 | 0.00 | 0.00 | 0.00 | 78 | 1012.1 |
| 20260506010531 | 15 | 302 | 4.8 | 6.4 | 0.00 | 0.00 | 0.00 | 78 | 1012.1 |
| 20260506010027 | 15 | 259 | 3.2 | 4.8 | 0.00 | 0.00 | 0.00 | 78 | 1012.1 |
| 20260506005524 | 15 | 281 | 4.8 | 4.8 | 0.00 | 0.00 | 0.00 | 78 | 1012.1 |
| 20260506005020 | 15 | 288 | 0.0 | 1.6 | 0.00 | 0.00 | 0.00 | 78 | 1011.7 |
| 20260506004517 | 15 | 261 | 9.7 | 12.9 | 0.00 | 0.00 | 0.00 | 78 | 1011.7 |
| 20260506004014 | 15 | 302 | 0.0 | 0.0 | 0.00 | 0.00 | 0.00 | 78 | 1011.7 |
| 20260506003510 | 15 | 270 | 4.8 | 4.8 | 0.00 | 0.00 | 0.00 | 78 | 1011.7 |
| 20260506003006 | 15 | 258 | 3.2 | 4.8 | 0.00 | 0.00 | 0.00 | 77 | 1011.7 |
| 20260506002502 | 15 | 271 | 6.4 | 11.3 | 0.00 | 0.00 | 0.00 | 77 | 1011.4 |
| 20260506001958 | 15 | 269 | 4.8 | 6.4 | 0.00 | 0.00 | 0.00 | 78 | 1011.4 |
| 20260506001455 | 15 | 268 | 6.4 | 8.0 | 0.00 | 0.00 | 0.00 | 78 | 1011.4 |